Disclaimer

Please do not use the information listed here in-flight or in-navigation, as they are not provided to us by the airports but are provided by volunteers, so they might be outdated.

Search


Regions


Airport information page

Radio informations:
LUMPUR TWR - 118.8 MHz
LUMPUR GND - 121.65 MHz
LUMPUR CLNC DEL - 126.0 MHz
LUMPUR ATIS - 126.45 MHz
LUMPUR APP - 119.45 MHz

Airport informations:
Latitude: 02° 44' 44.08" N
Longitude: 101° 42' 35.70" E
Elevation: 69 feet - 21 meters
Operating hours: 24 hour operations
Operating agency: Civil government, landing fees and diplomatic clearance may be required
Timezone: UTC+8
Fuel: Unknown fuel type or whether there is any fuel.

Runway information:
14R/32L - 13288 x 197 feet< - >4050 x 60 meters
14L/32R - 13530 x 197 feet< - >4124 x 60 meters

Recent METARs:
WMKK 190000Z 01005KT 290V060 7000 FEW002 SCT140 BKN280 24/24 Q1012 NOSIG
WMKK 190030Z 02004KT 320V060 9000 FEW018 BKN280 25/24 Q1013 NOSIG
WMKK 190100Z 02003KT 320V060 9999 FEW018 BKN280 26/24 Q1013 NOSIG

Airport on the map: